Wetterdaten: Woche 31.08.26 - 06.09.26 (KW36)
Datum Zeit Temp. I. Temp. A. Feuchte I. Feuchte A. Luftdruck Regen Wind Richtung Sonnenschein Solar Taupunkt Windchill Windböen
31.08.2026 00:00 22,8 °C 14,9 °C 59 % 87 % 1013,0 hPa 0,0 l/m² 0,0 km/h (0 Bft) O-NO 0,00 h 0 W/m² 12,8 °C 14,9 °C 0,0 km/h (0 Bft)
31.08.2026 01:00 22,8 °C 14,7 °C 59 % 89 % 1012,9 hPa 0,0 l/m² 0,3 km/h (0 Bft) O-NO 0,00 h 0 W/m² 12,9 °C 14,7 °C 0,4 km/h (0 Bft)
31.08.2026 02:00 22,7 °C 14,2 °C 59 % 89 % 1012,2 hPa 0,0 l/m² 1,3 km/h (1 Bft) O 0,00 h 0 W/m² 12,4 °C 14,2 °C 2,4 km/h (1 Bft)
31.08.2026 03:00 22,7 °C 13,7 °C 59 % 90 % 1011,8 hPa 0,0 l/m² 0,0 km/h (0 Bft) O 0,00 h 0 W/m² 12,1 °C 13,7 °C 0,3 km/h (0 Bft)
31.08.2026 04:00 22,7 °C 13,9 °C 59 % 91 % 1011,5 hPa 0,0 l/m² 0,2 km/h (0 Bft) O 0,00 h 0 W/m² 12,4 °C 13,9 °C 0,4 km/h (0 Bft)
31.08.2026 05:00 22,7 °C 14,3 °C 59 % 91 % 1011,3 hPa 0,0 l/m² 0,0 km/h (0 Bft) O 0,00 h 0 W/m² 12,8 °C 14,3 °C 0,0 km/h (0 Bft)
31.08.2026 06:00 22,7 °C 14,8 °C 59 % 91 % 1011,8 hPa 0,6 l/m² 2,5 km/h (1 Bft) S-SW 0,00 h 5 W/m² 13,3 °C 14,7 °C 4,1 km/h (1 Bft)
31.08.2026 07:00 22,6 °C 15,4 °C 59 % 92 % 1011,8 hPa 0,4 l/m² 1,3 km/h (1 Bft) S-SW 0,00 h 18 W/m² 14,1 °C 15,4 °C 2,7 km/h (1 Bft)
31.08.2026 08:00 22,6 °C 16,3 °C 59 % 93 % 1012,1 hPa 0,6 l/m² 4,5 km/h (1 Bft) S 0,70 h 72 W/m² 15,1 °C 16,2 °C 7,0 km/h (2 Bft)
31.08.2026 09:00 22,6 °C 18,1 °C 59 % 91 % 1012,2 hPa 0,0 l/m² 7,4 km/h (2 Bft) S 1,00 h 260 W/m² 16,6 °C 17,4 °C 10,4 km/h (2 Bft)
31.08.2026 10:00 22,7 °C 19,7 °C 59 % 85 % 1012,3 hPa 0,0 l/m² 13,1 km/h (3 Bft) S 1,00 h 346 W/m² 17,1 °C 17,4 °C 17,9 km/h (3 Bft)
31.08.2026 11:00 22,7 °C 20,5 °C 59 % 81 % 1012,3 hPa 0,0 l/m² 17,4 km/h (3 Bft) SW 0,98 h 286 W/m² 17,0 °C 17,4 °C 23,0 km/h (4 Bft)
31.08.2026 12:00 22,7 °C 22,5 °C 59 % 72 % 1012,2 hPa 0,0 l/m² 20,8 km/h (4 Bft) SW 1,02 h 590 W/m² 17,2 °C 19,4 °C 29,3 km/h (5 Bft)
31.08.2026 13:00 22,7 °C 24,2 °C 59 % 63 % 1012,0 hPa 0,0 l/m² 24,9 km/h (4 Bft) SW 1,00 h 786 W/m² 16,7 °C 21,1 °C 33,2 km/h (5 Bft)
31.08.2026 14:00 22,7 °C 24,8 °C 59 % 57 % 1011,9 hPa 0,0 l/m² 22,4 km/h (4 Bft) SW 1,00 h 543 W/m² 15,8 °C 22,2 °C 29,8 km/h (5 Bft)
31.08.2026 15:00 22,7 °C 25,3 °C 59 % 52 % 1011,7 hPa 0,0 l/m² 23,5 km/h (4 Bft) SW 1,00 h 532 W/m² 14,8 °C 22,7 °C 32,6 km/h (5 Bft)
31.08.2026 16:00 22,8 °C 24,7 °C 59 % 53 % 1011,6 hPa 0,0 l/m² 23,5 km/h (4 Bft) SW 1,00 h 303 W/m² 14,4 °C 22,0 °C 30,1 km/h (5 Bft)
31.08.2026 17:00 22,8 °C 24,3 °C 59 % 53 % 1011,6 hPa 0,0 l/m² 24,1 km/h (4 Bft) SW 1,00 h 171 W/m² 14,0 °C 21,3 °C 32,2 km/h (5 Bft)
31.08.2026 18:00 22,8 °C 23,7 °C 56 % 55 % 1011,6 hPa 0,0 l/m² 18,5 km/h (3 Bft) W-SW 0,53 h 54 W/m² 14,1 °C 21,2 °C 24,8 km/h (4 Bft)
31.08.2026 19:00 22,8 °C 19,6 °C 58 % 68 % 1012,4 hPa 1,6 l/m² 18,7 km/h (3 Bft) SW 0,00 h 11 W/m² 13,2 °C 16,5 °C 26,9 km/h (4 Bft)
31.08.2026 20:00 22,8 °C 15,6 °C 59 % 86 % 1013,0 hPa 0,0 l/m² 4,5 km/h (1 Bft) SW 0,00 h 0 W/m² 13,3 °C 15,5 °C 6,9 km/h (2 Bft)
31.08.2026 21:00 22,9 °C 15,5 °C 59 % 89 % 1013,4 hPa 0,0 l/m² 4,3 km/h (1 Bft) S-SW 0,00 h 0 W/m² 13,7 °C 15,1 °C 6,0 km/h (2 Bft)
31.08.2026 22:00 22,8 °C 16,2 °C 60 % 88 % 1014,3 hPa 0,0 l/m² 14,5 km/h (3 Bft) SW 0,00 h 0 W/m² 14,1 °C 12,8 °C 19,7 km/h (3 Bft)
31.08.2026 23:00 22,7 °C 15,9 °C 60 % 87 % 1014,7 hPa 0,0 l/m² 16,2 km/h (3 Bft) SW 0,00 h 0 W/m² 13,7 °C 11,9 °C 22,6 km/h (4 Bft)
01.09.2026 00:00 22,7 °C 15,2 °C 60 % 88 % 1015,1 hPa 0,0 l/m² 14,0 km/h (3 Bft) SW 0,00 h 0 W/m² 13,2 °C 11,9 °C 19,1 km/h (3 Bft)
01.09.2026 01:00 22,7 °C 14,6 °C 60 % 89 % 1015,4 hPa 0,0 l/m² 8,8 km/h (2 Bft) S-SW 0,00 h 0 W/m² 12,8 °C 13,3 °C 12,6 km/h (2 Bft)
01.09.2026 02:00 22,7 °C 14,9 °C 60 % 88 % 1015,6 hPa 0,0 l/m² 13,4 km/h (3 Bft) SW 0,00 h 0 W/m² 13,0 °C 11,7 °C 18,6 km/h (3 Bft)
01.09.2026 03:00 22,6 °C 14,7 °C 59 % 89 % 1015,8 hPa 0,0 l/m² 11,9 km/h (2 Bft) SW 0,00 h 0 W/m² 12,8 °C 11,9 °C 17,0 km/h (3 Bft)
01.09.2026 04:00 22,6 °C 14,5 °C 59 % 89 % 1016,1 hPa 0,0 l/m² 11,6 km/h (2 Bft) SW 0,00 h 0 W/m² 12,8 °C 12,0 °C 16,4 km/h (3 Bft)
01.09.2026 05:00 22,6 °C 14,5 °C 60 % 89 % 1016,5 hPa 0,0 l/m² 10,3 km/h (2 Bft) SW 0,00 h 0 W/m² 12,7 °C 12,5 °C 15,2 km/h (3 Bft)
01.09.2026 06:00 22,5 °C 14,2 °C 60 % 90 % 1017,0 hPa 0,0 l/m² 5,5 km/h (2 Bft) SW 0,00 h 11 W/m² 12,5 °C 14,1 °C 8,5 km/h (2 Bft)
01.09.2026 07:00 22,4 °C 14,5 °C 59 % 90 % 1017,5 hPa 0,0 l/m² 7,9 km/h (2 Bft) S-SW 0,55 h 74 W/m² 12,9 °C 13,6 °C 10,8 km/h (2 Bft)
01.09.2026 08:00 22,4 °C 16,7 °C 59 % 86 % 1017,8 hPa 0,0 l/m² 13,0 km/h (3 Bft) SW 1,00 h 269 W/m² 14,2 °C 14,0 °C 17,6 km/h (3 Bft)
01.09.2026 09:00 22,6 °C 18,4 °C 59 % 80 % 1018,2 hPa 0,0 l/m² 18,0 km/h (3 Bft) SW 1,00 h 401 W/m² 14,9 °C 14,7 °C 23,6 km/h (4 Bft)
01.09.2026 10:00 22,6 °C 19,3 °C 59 % 78 % 1018,4 hPa 0,0 l/m² 20,0 km/h (4 Bft) SW 1,00 h 338 W/m² 15,3 °C 15,3 °C 26,4 km/h (4 Bft)
01.09.2026 11:00 22,7 °C 20,9 °C 58 % 72 % 1018,6 hPa 0,2 l/m² 19,7 km/h (3 Bft) SW 1,00 h 531 W/m² 15,7 °C 17,5 °C 26,4 km/h (4 Bft)
01.09.2026 12:00 22,7 °C 22,3 °C 58 % 67 % 1018,6 hPa 0,0 l/m² 20,7 km/h (4 Bft) W-SW 0,73 h 630 W/m² 15,7 °C 19,1 °C 27,7 km/h (5 Bft)
Min-Datum _ 01.09.26 31.08.26 31.08.26 31.08.26 31.08.26 - 31.08.26 - - - 31.08.26 01.09.26 31.08.26
_ Min-Zeit 08:00 04:00 18:28 16:09 05:05 - 21:10 - - - 03:03 02:27 21:10
Minimum _ 22,4 °C 13,7 °C 55 % 49 % 1011,1 hPa - 0,0 km/h (0 Bft) - - - 11,9 °C 10,2 °C 0,0 km/h (0 Bft)
Max-Datum _ 31.08.26 31.08.26 01.09.26 31.08.26 01.09.26 31.08.26 31.08.26 - 01.09.26 31.08.26 31.08.26 31.08.26 31.08.26
_ Max-Zeit 21:06 15:08 06:01 09:01 12:00 19:30 19:25 - 12:09 12:12 12:33 15:07 19:25
Maximum _ 22,9 °C 26,2 °C 60 % 93 % 1018,7 hPa 1,6 l/m² 51,1 km/h
SW (7 Bft)
- 0,13 h 972 W/m² 18,0 °C 23,9 °C 83,7 km/h
SW (9 Bft)
Durchschnitt _ 22,7 °C 17,8 °C 59 % 81 % 1014,0 hPa #3,4 l/m² 11,9 km/h (2 Bft) SW #15:36 h 168 W/m² 14,1 °C 15,9 °C 16,3 km/h (3 Bft)
© 2009 Mathias Hoßbach